sensor_id;sensor_type;location;lat;lon;timestamp;P1;durP1;ratioP1;P2;durP2;ratioP2
16430;SDS011;8325;49.284;7.238;2023-05-07T04:01:38;3.20;;;2.90;;
16430;SDS011;8325;49.284;7.238;2023-05-07T04:05:51;3.42;;;2.90;;
16430;SDS011;8325;49.284;7.238;2023-05-07T04:10:03;3.65;;;2.88;;
16430;SDS011;8325;49.284;7.238;2023-05-07T04:14:15;4.65;;;2.95;;
16430;SDS011;8325;49.284;7.238;2023-05-07T04:18:26;3.58;;;3.13;;
16430;SDS011;8325;49.284;7.238;2023-05-07T04:22:38;4.07;;;2.92;;
16430;SDS011;8325;49.284;7.238;2023-05-07T04:26:50;4.43;;;3.15;;
16430;SDS011;8325;49.284;7.238;2023-05-07T04:31:04;3.25;;;2.83;;
16430;SDS011;8325;49.284;7.238;2023-05-07T04:35:18;3.13;;;2.80;;
16430;SDS011;8325;49.284;7.238;2023-05-07T04:39:30;3.88;;;3.00;;
16430;SDS011;8325;49.284;7.238;2023-05-07T04:43:43;4.13;;;3.20;;
16430;SDS011;8325;49.284;7.238;2023-05-07T04:47:57;5.20;;;3.28;;
16430;SDS011;8325;49.284;7.238;2023-05-07T04:52:08;6.25;;;3.80;;
16430;SDS011;8325;49.284;7.238;2023-05-07T04:56:20;4.50;;;3.88;;
16430;SDS011;8325;49.284;7.238;2023-05-07T05:00:32;5.50;;;4.30;;
16430;SDS011;8325;49.284;7.238;2023-05-07T05:04:47;6.05;;;3.95;;
16430;SDS011;8325;49.284;7.238;2023-05-07T05:08:59;4.35;;;3.72;;
16430;SDS011;8325;49.284;7.238;2023-05-07T05:13:13;3.75;;;3.33;;
16430;SDS011;8325;49.284;7.238;2023-05-07T05:17:26;4.15;;;3.47;;
16430;SDS011;8325;49.284;7.238;2023-05-07T05:21:37;3.90;;;3.50;;
16430;SDS011;8325;49.284;7.238;2023-05-07T05:25:58;4.95;;;3.60;;
16430;SDS011;8325;49.284;7.238;2023-05-07T05:30:13;7.00;;;3.80;;
16430;SDS011;8325;49.284;7.238;2023-05-07T05:34:28;3.75;;;3.00;;
16430;SDS011;8325;49.284;7.238;2023-05-07T05:38:41;6.63;;;3.42;;
16430;SDS011;8325;49.284;7.238;2023-05-07T05:42:55;5.57;;;3.60;;
16430;SDS011;8325;49.284;7.238;2023-05-07T05:47:07;3.40;;;2.80;;
16430;SDS011;8325;49.284;7.238;2023-05-07T05:51:20;3.88;;;3.17;;
16430;SDS011;8325;49.284;7.238;2023-05-07T05:55:33;4.57;;;3.22;;
16430;SDS011;8325;49.284;7.238;2023-05-07T05:59:45;3.92;;;3.22;;
16430;SDS011;8325;49.284;7.238;2023-05-07T06:03:58;3.53;;;3.10;;
16430;SDS011;8325;49.284;7.238;2023-05-07T06:08:10;3.83;;;3.40;;
16430;SDS011;8325;49.284;7.238;2023-05-07T06:12:21;5.97;;;3.30;;
16430;SDS011;8325;49.284;7.238;2023-05-07T06:16:33;3.28;;;2.97;;
16430;SDS011;8325;49.284;7.238;2023-05-07T06:20:45;5.40;;;3.40;;
16430;SDS011;8325;49.284;7.238;2023-05-07T06:25:06;5.75;;;3.22;;
16430;SDS011;8325;49.284;7.238;2023-05-07T06:29:18;3.28;;;2.97;;
16430;SDS011;8325;49.284;7.238;2023-05-07T06:33:30;3.10;;;2.80;;
16430;SDS011;8325;49.284;7.238;2023-05-07T06:37:41;5.00;;;3.40;;
16430;SDS011;8325;49.284;7.238;2023-05-07T06:42:04;5.28;;;3.40;;
16430;SDS011;8325;49.284;7.238;2023-05-07T06:46:17;4.18;;;3.22;;
16430;SDS011;8325;49.284;7.238;2023-05-07T06:50:29;4.35;;;3.35;;
16430;SDS011;8325;49.284;7.238;2023-05-07T06:54:43;3.25;;;2.95;;
16430;SDS011;8325;49.284;7.238;2023-05-07T06:58:57;5.00;;;3.05;;
16430;SDS011;8325;49.284;7.238;2023-05-07T07:03:09;4.38;;;2.95;;
16430;SDS011;8325;49.284;7.238;2023-05-07T07:07:21;3.15;;;2.85;;
16430;SDS011;8325;49.284;7.238;2023-05-07T07:11:34;3.08;;;2.72;;
16430;SDS011;8325;49.284;7.238;2023-05-07T07:15:46;3.70;;;2.60;;
16430;SDS011;8325;49.284;7.238;2023-05-07T07:19:58;3.20;;;2.63;;
16430;SDS011;8325;49.284;7.238;2023-05-07T07:24:10;3.53;;;2.90;;
16430;SDS011;8325;49.284;7.238;2023-05-07T07:28:22;3.33;;;2.85;;
16430;SDS011;8325;49.284;7.238;2023-05-07T07:32:34;3.85;;;3.00;;
16430;SDS011;8325;49.284;7.238;2023-05-07T07:36:46;6.65;;;4.18;;
16430;SDS011;8325;49.284;7.238;2023-05-07T07:41:01;3.63;;;2.72;;
16430;SDS011;8325;49.284;7.238;2023-05-07T07:45:14;3.60;;;2.80;;
16430;SDS011;8325;49.284;7.238;2023-05-07T07:49:29;3.45;;;2.70;;
16430;SDS011;8325;49.284;7.238;2023-05-07T07:53:46;3.40;;;3.00;;
16430;SDS011;8325;49.284;7.238;2023-05-07T07:57:57;4.20;;;2.92;;
16430;SDS011;8325;49.284;7.238;2023-05-07T08:02:09;3.45;;;2.85;;
16430;SDS011;8325;49.284;7.238;2023-05-07T08:06:21;3.58;;;2.60;;
16430;SDS011;8325;49.284;7.238;2023-05-07T08:10:33;4.63;;;2.90;;
16430;SDS011;8325;49.284;7.238;2023-05-07T08:14:52;4.60;;;3.03;;
16430;SDS011;8325;49.284;7.238;2023-05-07T08:19:03;3.17;;;2.70;;
16430;SDS011;8325;49.284;7.238;2023-05-07T08:23:15;2.63;;;2.38;;
16430;SDS011;8325;49.284;7.238;2023-05-07T08:27:29;4.82;;;2.72;;
16430;SDS011;8325;49.284;7.238;2023-05-07T08:31:40;3.08;;;2.78;;
16430;SDS011;8325;49.284;7.238;2023-05-07T08:35:52;5.75;;;2.67;;
16430;SDS011;8325;49.284;7.238;2023-05-07T08:40:04;2.83;;;2.50;;
16430;SDS011;8325;49.284;7.238;2023-05-07T08:44:21;3.08;;;2.60;;
16430;SDS011;8325;49.284;7.238;2023-05-07T08:48:35;2.90;;;2.42;;
16430;SDS011;8325;49.284;7.238;2023-05-07T08:52:51;3.78;;;2.90;;
16430;SDS011;8325;49.284;7.238;2023-05-07T08:57:04;2.70;;;2.50;;
16430;SDS011;8325;49.284;7.238;2023-05-07T09:01:18;3.13;;;2.35;;
16430;SDS011;8325;49.284;7.238;2023-05-07T09:05:34;4.15;;;3.00;;
16430;SDS011;8325;49.284;7.238;2023-05-07T09:09:48;3.55;;;3.17;;
16430;SDS011;8325;49.284;7.238;2023-05-07T09:14:00;3.33;;;2.80;;
16430;SDS011;8325;49.284;7.238;2023-05-07T09:18:20;2.83;;;2.63;;
16430;SDS011;8325;49.284;7.238;2023-05-07T09:22:33;4.60;;;3.03;;
16430;SDS011;8325;49.284;7.238;2023-05-07T09:26:50;3.10;;;2.70;;
16430;SDS011;8325;49.284;7.238;2023-05-07T09:31:02;3.15;;;2.83;;
16430;SDS011;8325;49.284;7.238;2023-05-07T09:35:14;2.40;;;2.20;;
16430;SDS011;8325;49.284;7.238;2023-05-07T09:39:41;3.13;;;2.40;;
16430;SDS011;8325;49.284;7.238;2023-05-07T09:43:55;2.50;;;2.30;;
16430;SDS011;8325;49.284;7.238;2023-05-07T09:48:13;2.50;;;2.22;;
16430;SDS011;8325;49.284;7.238;2023-05-07T09:52:39;3.72;;;2.80;;
16430;SDS011;8325;49.284;7.238;2023-05-07T09:56:53;4.00;;;2.92;;
16430;SDS011;8325;49.284;7.238;2023-05-07T10:01:10;3.55;;;2.63;;
16430;SDS011;8325;49.284;7.238;2023-05-07T10:05:25;3.10;;;2.50;;
16430;SDS011;8325;49.284;7.238;2023-05-07T10:09:40;2.60;;;2.38;;
16430;SDS011;8325;49.284;7.238;2023-05-07T10:14:04;2.70;;;2.35;;
16430;SDS011;8325;49.284;7.238;2023-05-07T10:18:19;3.03;;;2.38;;
16430;SDS011;8325;49.284;7.238;2023-05-07T10:22:41;2.72;;;2.50;;
16430;SDS011;8325;49.284;7.238;2023-05-07T10:26:55;3.28;;;2.97;;
16430;SDS011;8325;49.284;7.238;2023-05-07T10:35:55;3.22;;;2.70;;
16430;SDS011;8325;49.284;7.238;2023-05-07T10:40:11;2.97;;;2.78;;
16430;SDS011;8325;49.284;7.238;2023-05-07T10:44:28;3.10;;;2.70;;
16430;SDS011;8325;49.284;7.238;2023-05-07T10:53:20;2.72;;;2.53;;
16430;SDS011;8325;49.284;7.238;2023-05-07T10:57:43;3.83;;;2.85;;
16430;SDS011;8325;49.284;7.238;2023-05-07T11:02:04;3.70;;;2.58;;
16430;SDS011;8325;49.284;7.238;2023-05-07T11:06:26;2.97;;;2.78;;
16430;SDS011;8325;49.284;7.238;2023-05-07T11:15:33;2.70;;;2.50;;
16430;SDS011;8325;49.284;7.238;2023-05-07T11:19:51;2.80;;;2.60;;
16430;SDS011;8325;49.284;7.238;2023-05-07T11:24:17;3.22;;;2.47;;
16430;SDS011;8325;49.284;7.238;2023-05-07T11:28:40;2.30;;;2.10;;
16430;SDS011;8325;49.284;7.238;2023-05-07T11:32:54;2.55;;;2.35;;
16430;SDS011;8325;49.284;7.238;2023-05-07T11:37:06;2.22;;;2.03;;
16430;SDS011;8325;49.284;7.238;2023-05-07T11:41:38;3.05;;;2.20;;
16430;SDS011;8325;49.284;7.238;2023-05-07T11:45:49;4.50;;;2.03;;
16430;SDS011;8325;49.284;7.238;2023-05-07T11:50:03;2.30;;;2.10;;
16430;SDS011;8325;49.284;7.238;2023-05-07T11:54:19;2.58;;;2.03;;
16430;SDS011;8325;49.284;7.238;2023-05-07T11:58:30;3.13;;;2.10;;
16430;SDS011;8325;49.284;7.238;2023-05-07T12:02:42;2.10;;;2.00;;
16430;SDS011;8325;49.284;7.238;2023-05-07T12:06:54;2.00;;;1.90;;
16430;SDS011;8325;49.284;7.238;2023-05-07T12:11:07;3.70;;;2.25;;
16430;SDS011;8325;49.284;7.238;2023-05-07T12:15:24;3.05;;;2.30;;
16430;SDS011;8325;49.284;7.238;2023-05-07T12:19:36;2.95;;;2.20;;
16430;SDS011;8325;49.284;7.238;2023-05-07T12:23:48;2.65;;;2.45;;
16430;SDS011;8325;49.284;7.238;2023-05-07T12:28:00;2.30;;;2.20;;
16430;SDS011;8325;49.284;7.238;2023-05-07T12:32:13;4.40;;;2.58;;
16430;SDS011;8325;49.284;7.238;2023-05-07T12:36:35;3.00;;;2.47;;
16430;SDS011;8325;49.284;7.238;2023-05-07T12:40:49;2.65;;;2.53;;
16430;SDS011;8325;49.284;7.238;2023-05-07T12:45:12;3.63;;;2.92;;
16430;SDS011;8325;49.284;7.238;2023-05-07T12:49:27;2.55;;;2.30;;
16430;SDS011;8325;49.284;7.238;2023-05-07T12:53:39;3.13;;;2.60;;
16430;SDS011;8325;49.284;7.238;2023-05-07T12:57:53;2.65;;;2.45;;
16430;SDS011;8325;49.284;7.238;2023-05-07T13:02:05;2.90;;;2.70;;
16430;SDS011;8325;49.284;7.238;2023-05-07T13:06:19;2.80;;;2.60;;
16430;SDS011;8325;49.284;7.238;2023-05-07T13:10:30;4.25;;;3.22;;
16430;SDS011;8325;49.284;7.238;2023-05-07T13:14:42;3.28;;;2.97;;
16430;SDS011;8325;49.284;7.238;2023-05-07T13:18:53;3.25;;;2.80;;
16430;SDS011;8325;49.284;7.238;2023-05-07T13:23:05;4.95;;;3.50;;
16430;SDS011;8325;49.284;7.238;2023-05-07T13:27:17;5.55;;;3.30;;
16430;SDS011;8325;49.284;7.238;2023-05-07T13:31:30;3.92;;;3.47;;
16430;SDS011;8325;49.284;7.238;2023-05-07T13:35:42;3.83;;;3.53;;
16430;SDS011;8325;49.284;7.238;2023-05-07T13:39:54;4.43;;;3.42;;
16430;SDS011;8325;49.284;7.238;2023-05-07T13:44:06;4.57;;;3.53;;
16430;SDS011;8325;49.284;7.238;2023-05-07T13:48:17;4.07;;;3.63;;
16430;SDS011;8325;49.284;7.238;2023-05-07T13:52:29;4.53;;;3.53;;
16430;SDS011;8325;49.284;7.238;2023-05-07T13:56:41;4.13;;;3.72;;
16430;SDS011;8325;49.284;7.238;2023-05-07T14:00:52;4.82;;;3.80;;
16430;SDS011;8325;49.284;7.238;2023-05-07T14:05:04;4.40;;;3.85;;
16430;SDS011;8325;49.284;7.238;2023-05-07T14:09:16;5.07;;;3.80;;
16430;SDS011;8325;49.284;7.238;2023-05-07T14:13:28;3.80;;;3.38;;
16430;SDS011;8325;49.284;7.238;2023-05-07T14:17:42;5.03;;;3.70;;
16430;SDS011;8325;49.284;7.238;2023-05-07T14:21:54;5.20;;;3.50;;
16430;SDS011;8325;49.284;7.238;2023-05-07T14:26:09;3.97;;;3.58;;
16430;SDS011;8325;49.284;7.238;2023-05-07T14:30:20;3.72;;;3.38;;
16430;SDS011;8325;49.284;7.238;2023-05-07T14:34:35;3.60;;;3.30;;
16430;SDS011;8325;49.284;7.238;2023-05-07T14:38:47;3.67;;;3.35;;
16430;SDS011;8325;49.284;7.238;2023-05-07T14:42:58;5.45;;;3.28;;
16430;SDS011;8325;49.284;7.238;2023-05-07T14:47:10;3.20;;;2.50;;
16430;SDS011;8325;49.284;7.238;2023-05-07T14:51:21;1.92;;;1.83;;
16430;SDS011;8325;49.284;7.238;2023-05-07T14:55:33;2.10;;;1.67;;
16430;SDS011;8325;49.284;7.238;2023-05-07T14:59:46;1.50;;;1.40;;
16430;SDS011;8325;49.284;7.238;2023-05-07T15:03:58;2.50;;;1.67;;
16430;SDS011;8325;49.284;7.238;2023-05-07T15:08:11;2.03;;;1.50;;
16430;SDS011;8325;49.284;7.238;2023-05-07T15:12:23;3.28;;;2.03;;
16430;SDS011;8325;49.284;7.238;2023-05-07T15:16:34;2.05;;;1.85;;
16430;SDS011;8325;49.284;7.238;2023-05-07T15:20:46;1.65;;;1.50;;
16430;SDS011;8325;49.284;7.238;2023-05-07T15:24:57;2.53;;;1.58;;
16430;SDS011;8325;49.284;7.238;2023-05-07T15:29:09;1.58;;;1.27;;
16430;SDS011;8325;49.284;7.238;2023-05-07T15:33:21;1.50;;;1.10;;
16430;SDS011;8325;49.284;7.238;2023-05-07T15:37:33;0.95;;;0.90;;
16430;SDS011;8325;49.284;7.238;2023-05-07T15:41:45;1.65;;;1.20;;
16430;SDS011;8325;49.284;7.238;2023-05-07T15:45:56;1.30;;;1.20;;
16430;SDS011;8325;49.284;7.238;2023-05-07T15:50:08;1.67;;;1.20;;
16430;SDS011;8325;49.284;7.238;2023-05-07T15:54:20;1.33;;;1.20;;
16430;SDS011;8325;49.284;7.238;2023-05-07T15:58:32;1.67;;;1.17;;
16430;SDS011;8325;49.284;7.238;2023-05-07T16:02:43;1.27;;;1.17;;
16430;SDS011;8325;49.284;7.238;2023-05-07T16:06:55;1.20;;;1.10;;
16430;SDS011;8325;49.284;7.238;2023-05-07T16:11:07;1.48;;;1.08;;
16430;SDS011;8325;49.284;7.238;2023-05-07T16:15:18;2.35;;;1.50;;
16430;SDS011;8325;49.284;7.238;2023-05-07T16:19:30;2.83;;;1.33;;
16430;SDS011;8325;49.284;7.238;2023-05-07T16:23:41;1.33;;;1.23;;
16430;SDS011;8325;49.284;7.238;2023-05-07T16:27:54;2.90;;;1.77;;
16430;SDS011;8325;49.284;7.238;2023-05-07T16:32:06;2.40;;;2.00;;
16430;SDS011;8325;49.284;7.238;2023-05-07T16:36:17;1.80;;;1.40;;
16430;SDS011;8325;49.284;7.238;2023-05-07T16:40:29;1.95;;;1.30;;
16430;SDS011;8325;49.284;7.238;2023-05-07T16:44:41;2.13;;;1.88;;
16430;SDS011;8325;49.284;7.238;2023-05-07T16:48:52;2.15;;;1.20;;
16430;SDS011;8325;49.284;7.238;2023-05-07T16:53:04;1.42;;;1.20;;
16430;SDS011;8325;49.284;7.238;2023-05-07T16:57:17;1.35;;;1.25;;
16430;SDS011;8325;49.284;7.238;2023-05-07T17:01:28;1.65;;;1.55;;
16430;SDS011;8325;49.284;7.238;2023-05-07T17:05:42;1.50;;;1.40;;
16430;SDS011;8325;49.284;7.238;2023-05-07T17:09:54;2.60;;;1.73;;
16430;SDS011;8325;49.284;7.238;2023-05-07T17:14:05;1.52;;;1.40;;
16430;SDS011;8325;49.284;7.238;2023-05-07T17:18:17;1.70;;;1.60;;
16430;SDS011;8325;49.284;7.238;2023-05-07T17:22:28;1.92;;;1.33;;
16430;SDS011;8325;49.284;7.238;2023-05-07T17:26:40;2.20;;;1.45;;
16430;SDS011;8325;49.284;7.238;2023-05-07T17:30:53;2.05;;;1.60;;
16430;SDS011;8325;49.284;7.238;2023-05-07T17:35:05;1.83;;;1.52;;
16430;SDS011;8325;49.284;7.238;2023-05-07T17:39:17;2.22;;;1.50;;
16430;SDS011;8325;49.284;7.238;2023-05-07T17:43:28;2.03;;;1.73;;
16430;SDS011;8325;49.284;7.238;2023-05-07T17:47:40;3.72;;;1.60;;
16430;SDS011;8325;49.284;7.238;2023-05-07T17:51:52;2.35;;;2.15;;
16430;SDS011;8325;49.284;7.238;2023-05-07T17:56:05;1.65;;;1.55;;
16430;SDS011;8325;49.284;7.238;2023-05-07T18:00:17;1.60;;;1.50;;
16430;SDS011;8325;49.284;7.238;2023-05-07T18:04:29;2.20;;;1.80;;
16430;SDS011;8325;49.284;7.238;2023-05-07T18:08:40;3.08;;;1.75;;
16430;SDS011;8325;49.284;7.238;2023-05-07T18:12:52;2.75;;;1.98;;
16430;SDS011;8325;49.284;7.238;2023-05-07T18:17:03;2.50;;;1.70;;
16430;SDS011;8325;49.284;7.238;2023-05-07T18:21:15;2.42;;;1.90;;
16430;SDS011;8325;49.284;7.238;2023-05-07T18:25:29;3.63;;;1.60;;
16430;SDS011;8325;49.284;7.238;2023-05-07T18:29:41;4.75;;;2.15;;
16430;SDS011;8325;49.284;7.238;2023-05-07T18:33:52;3.10;;;1.88;;
16430;SDS011;8325;49.284;7.238;2023-05-07T18:38:05;2.42;;;2.00;;
16430;SDS011;8325;49.284;7.238;2023-05-07T18:42:17;3.33;;;2.40;;
16430;SDS011;8325;49.284;7.238;2023-05-07T18:46:29;2.40;;;2.00;;
16430;SDS011;8325;49.284;7.238;2023-05-07T18:50:43;2.28;;;2.08;;
16430;SDS011;8325;49.284;7.238;2023-05-07T18:54:55;2.63;;;1.85;;
16430;SDS011;8325;49.284;7.238;2023-05-07T18:59:07;2.97;;;2.28;;
16430;SDS011;8325;49.284;7.238;2023-05-07T19:03:18;2.35;;;2.13;;
16430;SDS011;8325;49.284;7.238;2023-05-07T19:07:30;3.13;;;2.20;;
16430;SDS011;8325;49.284;7.238;2023-05-07T19:11:41;4.50;;;2.40;;
16430;SDS011;8325;49.284;7.238;2023-05-07T19:15:53;2.50;;;2.30;;
16430;SDS011;8325;49.284;7.238;2023-05-07T19:20:05;5.47;;;2.90;;
16430;SDS011;8325;49.284;7.238;2023-05-07T19:24:18;3.40;;;2.90;;
16430;SDS011;8325;49.284;7.238;2023-05-07T19:28:29;4.55;;;3.17;;
16430;SDS011;8325;49.284;7.238;2023-05-07T19:32:41;4.97;;;3.03;;
16430;SDS011;8325;49.284;7.238;2023-05-07T19:36:53;3.55;;;2.80;;
16430;SDS011;8325;49.284;7.238;2023-05-07T19:41:05;4.32;;;3.03;;
16430;SDS011;8325;49.284;7.238;2023-05-07T19:45:17;3.30;;;3.05;;
16430;SDS011;8325;49.284;7.238;2023-05-07T19:49:28;5.30;;;3.03;;
16430;SDS011;8325;49.284;7.238;2023-05-07T19:53:40;3.28;;;2.92;;
16430;SDS011;8325;49.284;7.238;2023-05-07T19:57:52;4.45;;;3.10;;
16430;SDS011;8325;49.284;7.238;2023-05-07T20:02:03;3.67;;;3.05;;
16430;SDS011;8325;49.284;7.238;2023-05-07T20:06:15;5.10;;;3.33;;
16430;SDS011;8325;49.284;7.238;2023-05-07T20:10:27;3.67;;;3.30;;
16430;SDS011;8325;49.284;7.238;2023-05-07T20:14:38;5.72;;;3.28;;
16430;SDS011;8325;49.284;7.238;2023-05-07T20:18:50;3.40;;;3.10;;
16430;SDS011;8325;49.284;7.238;2023-05-07T20:23:01;4.53;;;3.13;;
16430;SDS011;8325;49.284;7.238;2023-05-07T20:27:13;4.55;;;3.25;;
16430;SDS011;8325;49.284;7.238;2023-05-07T20:31:26;3.70;;;3.30;;
16430;SDS011;8325;49.284;7.238;2023-05-07T20:35:37;5.72;;;4.18;;
16430;SDS011;8325;49.284;7.238;2023-05-07T20:39:49;4.03;;;3.67;;
16430;SDS011;8325;49.284;7.238;2023-05-07T20:44:00;5.60;;;4.20;;
16430;SDS011;8325;49.284;7.238;2023-05-07T20:48:12;8.32;;;4.40;;
16430;SDS011;8325;49.284;7.238;2023-05-07T20:52:24;5.65;;;4.43;;
16430;SDS011;8325;49.284;7.238;2023-05-07T20:56:39;5.40;;;4.30;;
16430;SDS011;8325;49.284;7.238;2023-05-07T21:00:54;7.40;;;4.53;;
16430;SDS011;8325;49.284;7.238;2023-05-07T21:05:09;4.65;;;4.20;;
16430;SDS011;8325;49.284;7.238;2023-05-07T21:09:28;5.43;;;4.63;;
16430;SDS011;8325;49.284;7.238;2023-05-07T21:13:52;5.88;;;4.97;;
16430;SDS011;8325;49.284;7.238;2023-05-07T21:18:08;5.60;;;4.63;;
16430;SDS011;8325;49.284;7.238;2023-05-07T21:22:28;6.18;;;4.47;;
16430;SDS011;8325;49.284;7.238;2023-05-07T21:26:46;7.03;;;5.47;;
